Acomita, New Mexico
Current Conditions -  °F | °C
As of 2:17 AM on Monday 20 Oct 2014 (Local Time) from KGNT Reporting Station
Clear Clear  
Wind Chill:   Ceiling: Unl
Heat Index:   Visibility: 10mi
Dew Point:   Wind: 7mph
Humidity: 87%   Direction: 270°W
Pressure: 30.23"   Gusts: NA
Location:  35.0806°N, 107.597°W
Report Text: KGNT 200817Z AUTO 27006KT 10SM CLR 04/02 A3023 RMK AO2
Loading
Personal Weather Stations






























Interactive Weather Map
Tropical Storm Tracking
New forecast layout! Learn more

10-Day Weather Forecast

Advertisements
Track Severe Weather on mobile